createdAt,value
2018-09-24T00:00:06.980Z,23.28
2018-09-24T00:00:39.102Z,23.28
2018-09-24T00:01:11.299Z,23.28
2018-09-24T00:01:43.632Z,23.28
2018-09-24T00:02:15.805Z,23.28
2018-09-24T00:02:47.930Z,23.27
2018-09-24T00:03:20.115Z,23.27
2018-09-24T00:03:52.233Z,23.27
2018-09-24T00:04:24.389Z,23.26
2018-09-24T00:04:56.471Z,23.26
2018-09-24T00:05:28.598Z,23.27
2018-09-24T00:06:01.012Z,23.27
2018-09-24T00:06:33.285Z,23.27
2018-09-24T00:07:05.402Z,23.27
2018-09-24T00:07:37.553Z,23.27
2018-09-24T00:08:09.809Z,23.26
2018-09-24T00:08:41.929Z,23.26
2018-09-24T00:09:14.386Z,23.27
2018-09-24T00:09:46.472Z,23.27
2018-09-24T00:10:18.566Z,23.26
2018-09-24T00:10:50.656Z,23.26
2018-09-24T00:11:22.747Z,23.26
2018-09-24T00:11:54.914Z,23.26
2018-09-24T00:12:27.219Z,23.25
2018-09-24T00:12:59.321Z,23.26
2018-09-24T00:13:31.445Z,23.25
2018-09-24T00:14:03.567Z,23.26
2018-09-24T00:14:35.849Z,23.26
2018-09-24T00:15:07.958Z,23.25
2018-09-24T00:15:40.085Z,23.26
2018-09-24T00:16:12.214Z,23.26
2018-09-24T00:16:44.306Z,23.25
2018-09-24T00:17:16.421Z,23.25
2018-09-24T00:17:48.646Z,23.25
2018-09-24T00:18:20.745Z,23.24
2018-09-24T00:18:52.966Z,23.24
2018-09-24T00:19:25.052Z,23.25
2018-09-24T00:19:57.184Z,23.25
2018-09-24T00:20:29.301Z,23.25
2018-09-24T00:21:01.393Z,23.26
2018-09-24T00:21:33.506Z,23.25
2018-09-24T00:22:05.640Z,23.24
2018-09-24T00:22:37.745Z,23.25
2018-09-24T00:23:09.901Z,23.25
2018-09-24T00:23:42.072Z,23.24
2018-09-24T00:24:14.170Z,23.23
2018-09-24T00:24:46.425Z,23.25
2018-09-24T00:25:18.746Z,23.24
2018-09-24T00:25:50.818Z,23.24
2018-09-24T00:26:23.007Z,23.24
2018-09-24T00:26:55.106Z,23.24
2018-09-24T00:27:27.346Z,23.25
2018-09-24T00:27:59.554Z,23.24
2018-09-24T00:28:31.860Z,23.24
2018-09-24T00:29:04.017Z,23.23
2018-09-24T00:29:36.118Z,23.24
2018-09-24T00:30:08.295Z,23.23
2018-09-24T00:30:40.501Z,23.22
2018-09-24T00:31:12.884Z,23.21
2018-09-24T00:31:44.976Z,23.22
2018-09-24T00:32:17.128Z,23.22
2018-09-24T00:32:49.249Z,23.21
2018-09-24T00:33:21.519Z,23.21
2018-09-24T00:33:53.610Z,23.21
2018-09-24T00:34:25.733Z,23.22
2018-09-24T00:34:57.850Z,23.22
2018-09-24T00:35:29.968Z,23.22
2018-09-24T00:36:02.130Z,23.21
2018-09-24T00:36:34.285Z,23.21
2018-09-24T00:37:06.460Z,23.21
2018-09-24T00:37:38.678Z,23.21
2018-09-24T00:38:10.946Z,23.21
2018-09-24T00:38:43.043Z,23.22
2018-09-24T00:39:15.213Z,23.21
2018-09-24T00:39:47.345Z,23.21
2018-09-24T00:40:19.450Z,23.21
2018-09-24T00:40:51.645Z,23.21
2018-09-24T00:41:23.758Z,23.21
2018-09-24T00:41:56.049Z,23.21
2018-09-24T00:42:28.154Z,23.21
2018-09-24T00:43:00.310Z,23.20
2018-09-24T00:43:32.600Z,23.21
2018-09-24T00:44:04.702Z,23.20
2018-09-24T00:44:36.830Z,23.20
2018-09-24T00:45:08.957Z,23.20
2018-09-24T00:45:41.069Z,23.20
2018-09-24T00:46:13.193Z,23.21
2018-09-24T00:46:45.438Z,23.21
2018-09-24T00:47:17.556Z,23.20
2018-09-24T00:47:49.692Z,23.20
2018-09-24T00:48:21.799Z,23.20
2018-09-24T00:48:53.933Z,23.21
2018-09-24T00:49:26.098Z,23.20
2018-09-24T00:49:58.321Z,23.20
2018-09-24T00:50:30.451Z,23.21
2018-09-24T00:51:02.578Z,23.20
2018-09-24T00:51:34.711Z,23.20
2018-09-24T00:52:06.815Z,23.19
2018-09-24T00:52:39.062Z,23.19
2018-09-24T00:53:11.159Z,23.18
2018-09-24T00:53:43.412Z,23.18
2018-09-24T00:54:15.568Z,23.18
2018-09-24T00:54:47.676Z,23.19
2018-09-24T00:55:20.033Z,23.19
2018-09-24T00:55:52.193Z,23.18
2018-09-24T00:56:24.362Z,23.19
2018-09-24T00:56:56.469Z,23.18
2018-09-24T00:57:28.684Z,23.19
2018-09-24T00:58:00.809Z,23.18
2018-09-24T00:58:33.082Z,23.19
2018-09-24T00:59:05.148Z,23.18
2018-09-24T00:59:37.320Z,23.18
2018-09-24T01:00:09.436Z,23.18
2018-09-24T01:00:41.738Z,23.18
2018-09-24T01:01:14.013Z,23.18
2018-09-24T01:01:46.308Z,23.16
2018-09-24T01:02:18.405Z,23.17
2018-09-24T01:02:50.502Z,23.18
2018-09-24T01:03:22.633Z,23.18
2018-09-24T01:03:54.808Z,23.18
2018-09-24T01:04:26.960Z,23.17
2018-09-24T01:04:59.029Z,23.16
2018-09-24T01:05:31.284Z,23.17
2018-09-24T01:06:03.401Z,23.16
2018-09-24T01:06:35.533Z,23.16
2018-09-24T01:07:07.648Z,23.16
2018-09-24T01:07:39.763Z,23.18
2018-09-24T01:08:11.894Z,23.17
2018-09-24T01:08:43.988Z,23.16
2018-09-24T01:09:16.088Z,23.16
2018-09-24T01:09:48.232Z,23.16
2018-09-24T01:10:20.363Z,23.15
2018-09-24T01:10:52.538Z,23.15
2018-09-24T01:11:24.727Z,23.14
2018-09-24T01:11:56.982Z,23.15
2018-09-24T01:12:29.109Z,23.15
2018-09-24T01:13:01.393Z,23.14
2018-09-24T01:13:33.506Z,23.15
2018-09-24T01:14:05.623Z,23.14
2018-09-24T01:14:37.911Z,23.13
2018-09-24T01:15:10.124Z,23.13
2018-09-24T01:15:42.247Z,23.14
2018-09-24T01:16:14.369Z,23.14
2018-09-24T01:16:46.479Z,23.14
2018-09-24T01:17:18.561Z,23.13
2018-09-24T01:17:50.878Z,23.14
2018-09-24T01:18:23.257Z,23.11
2018-09-24T01:18:55.545Z,23.13
2018-09-24T01:19:27.705Z,23.14
2018-09-24T01:19:59.815Z,23.13
2018-09-24T01:20:32.079Z,23.11
2018-09-24T01:21:04.183Z,23.13
2018-09-24T01:21:36.367Z,23.14
2018-09-24T01:22:08.485Z,23.12
2018-09-24T01:22:40.590Z,23.13
2018-09-24T01:23:12.745Z,23.12
2018-09-24T01:23:45.104Z,23.12
2018-09-24T01:24:17.209Z,23.11
2018-09-24T01:24:49.301Z,23.11
2018-09-24T01:25:21.550Z,23.11
2018-09-24T01:25:53.817Z,23.11
2018-09-24T01:26:25.909Z,23.10
2018-09-24T01:26:58.035Z,23.11
2018-09-24T01:27:30.195Z,23.10
2018-09-24T01:28:02.672Z,23.11
2018-09-24T01:28:34.745Z,23.11
2018-09-24T01:29:06.819Z,23.10
2018-09-24T01:29:39.125Z,23.11
2018-09-24T01:30:11.258Z,23.12
2018-09-24T01:30:43.419Z,23.12
2018-09-24T01:31:15.497Z,23.11
2018-09-24T01:31:47.664Z,23.11
2018-09-24T01:32:19.773Z,23.11
2018-09-24T01:32:52.151Z,23.10
2018-09-24T01:33:24.382Z,23.09
2018-09-24T01:33:56.521Z,23.11
2018-09-24T01:34:28.610Z,23.10
2018-09-24T01:35:00.777Z,23.10
2018-09-24T01:35:32.899Z,23.09
2018-09-24T01:36:05.084Z,23.10
2018-09-24T01:36:37.218Z,23.09
2018-09-24T01:37:09.386Z,23.09
2018-09-24T01:37:41.493Z,23.09
2018-09-24T01:38:13.629Z,23.11
2018-09-24T01:38:45.904Z,23.09
2018-09-24T01:39:18.007Z,23.09
2018-09-24T01:39:50.218Z,23.09
2018-09-24T01:40:22.321Z,23.10
2018-09-24T01:40:54.566Z,23.09
2018-09-24T01:41:27.092Z,23.10
2018-09-24T01:41:59.220Z,23.09
2018-09-24T01:42:31.337Z,23.10
2018-09-24T01:43:03.441Z,23.09
2018-09-24T01:43:35.529Z,23.08
2018-09-24T01:44:07.615Z,23.09
2018-09-24T01:44:39.866Z,23.09
2018-09-24T01:45:11.976Z,23.08
2018-09-24T01:45:44.160Z,23.09
2018-09-24T01:46:16.312Z,23.09
2018-09-24T01:46:48.436Z,23.09
2018-09-24T01:47:20.586Z,23.09
2018-09-24T01:47:52.762Z,23.09
2018-09-24T01:48:24.901Z,23.08
2018-09-24T01:48:56.994Z,23.08
2018-09-24T01:49:29.244Z,23.08
2018-09-24T01:50:01.370Z,23.09
2018-09-24T01:50:33.510Z,23.08
2018-09-24T01:51:05.687Z,23.08
2018-09-24T01:51:37.807Z,23.08
2018-09-24T01:52:09.995Z,23.07
2018-09-24T01:52:42.089Z,23.07
2018-09-24T01:53:14.185Z,23.07
2018-09-24T01:53:46.364Z,23.08
2018-09-24T01:54:18.474Z,23.08
2018-09-24T01:54:50.581Z,23.07
2018-09-24T01:55:22.686Z,23.08
2018-09-24T01:55:54.864Z,23.08
2018-09-24T01:56:27.165Z,23.08
2018-09-24T01:56:59.270Z,23.08
2018-09-24T01:57:31.429Z,23.08
2018-09-24T01:58:03.532Z,23.07
2018-09-24T01:58:35.659Z,23.08
2018-09-24T01:59:07.813Z,23.08
2018-09-24T01:59:39.990Z,23.08
2018-09-24T02:00:12.093Z,23.08
2018-09-24T02:00:44.238Z,23.08
2018-09-24T02:01:16.437Z,23.08
2018-09-24T02:01:48.550Z,23.08
2018-09-24T02:02:20.654Z,23.08
2018-09-24T02:02:52.763Z,23.07
2018-09-24T02:03:24.896Z,23.08
2018-09-24T02:03:57.155Z,23.07
2018-09-24T02:04:29.265Z,23.07
2018-09-24T02:05:01.438Z,23.07
2018-09-24T02:05:33.616Z,23.07
2018-09-24T02:06:05.804Z,23.07
2018-09-24T02:06:38.122Z,23.05
2018-09-24T02:07:10.378Z,23.05
2018-09-24T02:07:42.674Z,23.06
2018-09-24T02:08:14.765Z,23.05
2018-09-24T02:08:46.946Z,23.05
2018-09-24T02:09:19.077Z,23.04
2018-09-24T02:09:51.197Z,23.04
2018-09-24T02:10:23.471Z,23.04
2018-09-24T02:10:55.575Z,23.05
2018-09-24T02:11:27.677Z,23.04
2018-09-24T02:11:59.827Z,23.03
2018-09-24T02:12:31.950Z,23.04
2018-09-24T02:13:04.208Z,23.05
2018-09-24T02:13:36.329Z,23.03
2018-09-24T02:14:08.458Z,23.03
2018-09-24T02:14:40.552Z,23.03
2018-09-24T02:15:12.649Z,23.02
2018-09-24T02:15:44.794Z,23.01
2018-09-24T02:16:16.901Z,23.02
2018-09-24T02:16:49.050Z,23.02
2018-09-24T02:17:21.172Z,23.02
2018-09-24T02:17:53.331Z,23.02
2018-09-24T02:18:25.470Z,23.02
2018-09-24T02:18:57.606Z,23.03
2018-09-24T02:19:29.822Z,23.03
2018-09-24T02:20:01.959Z,23.02
2018-09-24T02:20:34.090Z,23.02
2018-09-24T02:21:06.320Z,23.02
2018-09-24T02:21:38.436Z,23.02
2018-09-24T02:22:10.572Z,23.02
2018-09-24T02:22:42.685Z,23.02
2018-09-24T02:23:14.936Z,23.02
2018-09-24T02:23:47.232Z,23.02
2018-09-24T02:24:19.319Z,23.01
2018-09-24T02:24:51.472Z,23.02
2018-09-24T02:25:23.859Z,23.01
2018-09-24T02:25:55.977Z,23.01
2018-09-24T02:26:28.165Z,23.01
2018-09-24T02:27:00.265Z,23.01
2018-09-24T02:27:32.415Z,23.00
2018-09-24T02:28:04.629Z,23.00
2018-09-24T02:28:36.724Z,23.00
2018-09-24T02:29:08.985Z,22.99
2018-09-24T02:29:41.154Z,22.99
2018-09-24T02:30:13.283Z,22.99
2018-09-24T02:30:45.606Z,22.98
2018-09-24T02:31:17.687Z,22.98
2018-09-24T02:31:49.781Z,22.98
2018-09-24T02:32:21.928Z,22.98
2018-09-24T02:32:53.996Z,23.00
2018-09-24T02:33:26.240Z,22.98
2018-09-24T02:33:58.358Z,22.99
2018-09-24T02:34:30.481Z,22.99
2018-09-24T02:35:02.676Z,22.98
2018-09-24T02:35:34.784Z,22.99
2018-09-24T02:36:06.932Z,22.99
2018-09-24T02:36:39.213Z,22.98
2018-09-24T02:37:11.420Z,22.98
2018-09-24T02:37:43.779Z,22.97
2018-09-24T02:38:15.874Z,22.97
2018-09-24T02:38:47.989Z,22.97
2018-09-24T02:39:20.281Z,22.98
2018-09-24T02:39:52.379Z,22.96
2018-09-24T02:40:24.587Z,22.96
2018-09-24T02:40:56.862Z,22.97
2018-09-24T02:41:28.989Z,22.97
2018-09-24T02:42:01.353Z,22.96
2018-09-24T02:42:33.541Z,22.96
2018-09-24T02:43:05.838Z,22.97
2018-09-24T02:43:37.981Z,22.97
2018-09-24T02:44:10.480Z,22.98
2018-09-24T02:44:42.610Z,22.97
2018-09-24T02:45:14.735Z,22.97
2018-09-24T02:45:46.862Z,22.96
2018-09-24T02:46:18.949Z,22.96
2018-09-24T02:46:51.068Z,22.95
2018-09-24T02:47:23.165Z,22.96
2018-09-24T02:47:55.305Z,22.96
2018-09-24T02:48:27.510Z,22.96
2018-09-24T02:48:59.732Z,22.96
2018-09-24T02:49:31.831Z,22.96
2018-09-24T02:50:03.947Z,22.96
2018-09-24T02:50:36.037Z,22.96
2018-09-24T02:51:08.155Z,22.96
2018-09-24T02:51:40.259Z,22.97
2018-09-24T02:52:12.419Z,22.97
2018-09-24T02:52:44.529Z,22.96
2018-09-24T02:53:16.665Z,22.96
2018-09-24T02:53:48.819Z,22.96
2018-09-24T02:54:20.907Z,22.96
2018-09-24T02:54:53.008Z,22.96
2018-09-24T02:55:25.131Z,22.96
2018-09-24T02:55:57.230Z,22.96
2018-09-24T02:56:29.342Z,22.97
2018-09-24T02:57:01.443Z,22.96
2018-09-24T02:57:33.546Z,22.96
2018-09-24T02:58:05.764Z,22.96
2018-09-24T02:58:37.901Z,22.95
2018-09-24T02:59:10.022Z,22.95
2018-09-24T02:59:42.297Z,22.96
2018-09-24T03:00:14.433Z,22.95
2018-09-24T03:00:46.565Z,22.95
2018-09-24T03:01:18.757Z,22.94
2018-09-24T03:01:50.859Z,22.95
2018-09-24T03:02:23.002Z,22.94
2018-09-24T03:02:55.171Z,22.94
2018-09-24T03:03:27.511Z,22.94
2018-09-24T03:03:59.836Z,22.95
2018-09-24T03:04:31.961Z,22.94
2018-09-24T03:05:04.096Z,22.93
2018-09-24T03:05:36.199Z,22.94
2018-09-24T03:06:08.291Z,22.93
2018-09-24T03:06:40.386Z,22.94
2018-09-24T03:07:12.617Z,22.95
2018-09-24T03:07:44.853Z,22.94
2018-09-24T03:08:17.030Z,22.94
2018-09-24T03:08:49.149Z,22.94
2018-09-24T03:09:21.310Z,22.95
2018-09-24T03:09:53.445Z,22.94
2018-09-24T03:10:25.723Z,22.94
2018-09-24T03:10:57.826Z,22.95
2018-09-24T03:11:29.969Z,22.95
2018-09-24T03:12:02.166Z,22.94
2018-09-24T03:12:34.299Z,22.94
2018-09-24T03:13:06.484Z,22.95
2018-09-24T03:13:38.865Z,22.94
2018-09-24T03:14:11.023Z,22.94
2018-09-24T03:14:43.162Z,22.94
2018-09-24T03:15:15.281Z,22.94
2018-09-24T03:15:47.610Z,22.93
2018-09-24T03:16:19.683Z,22.92
2018-09-24T03:16:51.867Z,22.92
2018-09-24T03:17:24.000Z,22.92
2018-09-24T03:17:56.127Z,22.93
2018-09-24T03:18:28.226Z,22.93
2018-09-24T03:19:00.382Z,22.92
2018-09-24T03:19:32.534Z,22.93
2018-09-24T03:20:04.706Z,22.93
2018-09-24T03:20:37.123Z,22.92
2018-09-24T03:21:09.270Z,22.93
2018-09-24T03:21:41.571Z,22.92
2018-09-24T03:22:13.670Z,22.92
2018-09-24T03:22:45.814Z,22.92
2018-09-24T03:23:17.933Z,22.93
2018-09-24T03:23:50.072Z,22.93
2018-09-24T03:24:22.150Z,22.93
2018-09-24T03:24:54.252Z,22.92
2018-09-24T03:25:26.384Z,22.92
2018-09-24T03:25:58.628Z,22.92
2018-09-24T03:26:30.742Z,22.92
2018-09-24T03:27:02.849Z,22.92
2018-09-24T03:27:35.248Z,22.92
2018-09-24T03:28:07.620Z,22.91
2018-09-24T03:28:39.727Z,22.92
2018-09-24T03:29:11.827Z,22.91
2018-09-24T03:29:44.043Z,22.91
2018-09-24T03:30:16.180Z,22.90
2018-09-24T03:30:48.321Z,22.89
2018-09-24T03:31:20.715Z,22.91
2018-09-24T03:31:52.863Z,22.91
2018-09-24T03:32:25.140Z,22.90
2018-09-24T03:32:57.219Z,22.90
2018-09-24T03:33:29.343Z,22.89
2018-09-24T03:34:01.458Z,22.89
2018-09-24T03:34:33.682Z,22.90
2018-09-24T03:35:05.933Z,22.90
2018-09-24T03:35:38.031Z,22.89
2018-09-24T03:36:10.136Z,22.88
2018-09-24T03:36:42.254Z,22.91
2018-09-24T03:37:14.382Z,22.90
2018-09-24T03:37:46.548Z,22.91
2018-09-24T03:38:18.784Z,22.91
2018-09-24T03:38:51.010Z,22.90
2018-09-24T03:39:23.121Z,22.89
2018-09-24T03:39:55.383Z,22.89
2018-09-24T03:40:27.505Z,22.91
2018-09-24T03:40:59.622Z,22.89
2018-09-24T03:41:31.721Z,22.89
2018-09-24T03:42:03.957Z,22.89
2018-09-24T03:42:36.197Z,22.89
2018-09-24T03:43:08.301Z,22.88
2018-09-24T03:43:40.445Z,22.88
2018-09-24T03:44:12.713Z,22.87
2018-09-24T03:44:45.074Z,22.87
2018-09-24T03:45:17.230Z,22.86
2018-09-24T03:45:49.321Z,22.86
2018-09-24T03:46:21.510Z,22.85
2018-09-24T03:46:53.629Z,22.85
2018-09-24T03:47:25.812Z,22.85
2018-09-24T03:47:57.891Z,22.85
2018-09-24T03:48:30.045Z,22.85
2018-09-24T03:49:02.144Z,22.84
2018-09-24T03:49:34.218Z,22.86
2018-09-24T03:50:06.338Z,22.87
2018-09-24T03:50:38.618Z,22.87
2018-09-24T03:51:10.777Z,22.86
2018-09-24T03:51:42.889Z,22.86
2018-09-24T03:52:15.027Z,22.86
2018-09-24T03:52:47.121Z,22.86
2018-09-24T03:53:19.287Z,22.86
2018-09-24T03:53:51.453Z,22.86
2018-09-24T03:54:23.587Z,22.85
2018-09-24T03:54:55.691Z,22.85
2018-09-24T03:55:27.810Z,22.85
2018-09-24T03:55:59.998Z,22.85
2018-09-24T03:56:32.186Z,22.85
2018-09-24T03:57:04.284Z,22.85
2018-09-24T03:57:36.563Z,22.84
2018-09-24T03:58:08.669Z,22.84
2018-09-24T03:58:40.804Z,22.85
2018-09-24T03:59:12.909Z,22.85
2018-09-24T03:59:45.117Z,22.85
2018-09-24T04:00:17.205Z,22.85
2018-09-24T04:00:49.294Z,22.84
2018-09-24T04:01:21.587Z,22.86
2018-09-24T04:01:53.705Z,22.85
2018-09-24T04:02:25.810Z,22.85
2018-09-24T04:02:57.951Z,22.85
2018-09-24T04:03:30.243Z,22.83
2018-09-24T04:04:02.334Z,22.83
2018-09-24T04:04:34.405Z,22.82
2018-09-24T04:05:06.594Z,22.82
2018-09-24T04:05:39.015Z,22.83
2018-09-24T04:06:11.272Z,22.84
2018-09-24T04:06:43.418Z,22.83
2018-09-24T04:07:15.573Z,22.84
2018-09-24T04:07:47.753Z,22.82
2018-09-24T04:08:19.849Z,22.82
2018-09-24T04:08:52.039Z,22.81
2018-09-24T04:09:24.165Z,22.82
2018-09-24T04:09:56.581Z,22.82
2018-09-24T04:10:28.774Z,22.79
2018-09-24T04:11:00.960Z,22.82
2018-09-24T04:11:33.004Z,22.82
2018-09-24T04:12:05.097Z,22.81
2018-09-24T04:12:37.189Z,22.82
2018-09-24T04:13:09.355Z,22.83
2018-09-24T04:13:41.461Z,22.82
2018-09-24T04:14:13.602Z,22.83
2018-09-24T04:14:45.763Z,22.82
2018-09-24T04:15:17.874Z,22.83
2018-09-24T04:15:49.963Z,22.83
2018-09-24T04:16:22.113Z,22.82
2018-09-24T04:16:54.236Z,22.83
2018-09-24T04:17:26.340Z,22.83
2018-09-24T04:17:58.444Z,22.82
2018-09-24T04:18:30.570Z,22.82
2018-09-24T04:19:02.694Z,22.81
2018-09-24T04:19:34.889Z,22.82
2018-09-24T04:20:06.949Z,22.81
2018-09-24T04:20:39.291Z,22.79
2018-09-24T04:21:11.547Z,22.80
2018-09-24T04:21:43.870Z,22.79
2018-09-24T04:22:16.131Z,22.80
2018-09-24T04:22:48.315Z,22.79
2018-09-24T04:23:20.514Z,22.78
2018-09-24T04:23:52.675Z,22.76
2018-09-24T04:24:24.771Z,22.78
2018-09-24T04:24:56.856Z,22.81
2018-09-24T04:25:29.219Z,22.79
2018-09-24T04:26:01.669Z,22.79
2018-09-24T04:26:33.803Z,22.81
2018-09-24T04:27:05.921Z,22.79
2018-09-24T04:27:38.420Z,22.79
2018-09-24T04:28:10.675Z,22.80
2018-09-24T04:28:42.822Z,22.79
2018-09-24T04:29:14.929Z,22.79
2018-09-24T04:29:47.338Z,22.79
2018-09-24T04:30:19.501Z,22.80
2018-09-24T04:30:51.792Z,22.79
2018-09-24T04:31:24.147Z,22.79
2018-09-24T04:31:56.275Z,22.77
2018-09-24T04:32:28.374Z,22.78
2018-09-24T04:33:00.610Z,22.78
2018-09-24T04:33:32.778Z,22.78
2018-09-24T04:34:04.934Z,22.77
2018-09-24T04:34:37.093Z,22.79
2018-09-24T04:35:09.238Z,22.78
2018-09-24T04:35:41.581Z,22.77
2018-09-24T04:36:13.704Z,22.76
2018-09-24T04:36:45.807Z,22.76
2018-09-24T04:37:18.077Z,22.77
2018-09-24T04:37:50.262Z,22.75
2018-09-24T04:38:22.571Z,22.77
2018-09-24T04:38:54.838Z,22.77
2018-09-24T04:39:27.051Z,22.79
2018-09-24T04:39:59.145Z,22.80
2018-09-24T04:40:31.294Z,22.82
2018-09-24T04:41:03.634Z,22.81
2018-09-24T04:41:35.726Z,22.82
2018-09-24T04:42:07.877Z,22.81
2018-09-24T04:42:40.014Z,22.82
2018-09-24T04:43:12.214Z,22.83
2018-09-24T04:43:44.369Z,22.83
2018-09-24T04:44:16.478Z,22.83
2018-09-24T04:44:48.599Z,22.84
2018-09-24T04:45:20.712Z,22.83
2018-09-24T04:45:52.919Z,22.82
2018-09-24T04:46:25.001Z,22.82
2018-09-24T04:46:57.135Z,22.82
2018-09-24T04:47:29.428Z,22.82
2018-09-24T04:48:01.635Z,22.82
2018-09-24T04:48:33.707Z,22.82
2018-09-24T04:49:05.846Z,22.80
2018-09-24T04:49:37.962Z,22.81
2018-09-24T04:50:10.069Z,22.80
2018-09-24T04:50:42.305Z,22.81
2018-09-24T04:51:14.461Z,22.79
2018-09-24T04:51:46.643Z,22.79
2018-09-24T04:52:18.787Z,22.80
2018-09-24T04:52:50.897Z,22.81
2018-09-24T04:53:23.078Z,22.79
2018-09-24T04:53:55.202Z,22.80
2018-09-24T04:54:27.317Z,22.82
2018-09-24T04:54:59.391Z,22.82
2018-09-24T04:55:31.485Z,22.83
2018-09-24T04:56:03.712Z,22.83
2018-09-24T04:56:35.799Z,22.83
2018-09-24T04:57:07.955Z,22.84
2018-09-24T04:57:40.066Z,22.83
2018-09-24T04:58:12.210Z,22.83
2018-09-24T04:58:44.375Z,22.83
2018-09-24T04:59:16.563Z,22.82
2018-09-24T04:59:48.702Z,22.82
2018-09-24T05:00:20.819Z,22.79
2018-09-24T05:00:52.931Z,22.79
2018-09-24T05:01:25.085Z,22.79
2018-09-24T05:01:57.435Z,22.78
2018-09-24T05:02:29.525Z,22.78
2018-09-24T05:03:01.658Z,22.78
2018-09-24T05:03:33.807Z,22.77
2018-09-24T05:04:05.906Z,22.78
2018-09-24T05:04:38.005Z,22.77
2018-09-24T05:05:10.148Z,22.76
2018-09-24T05:05:42.266Z,22.75
2018-09-24T05:06:14.530Z,22.75
2018-09-24T05:06:46.716Z,22.75
2018-09-24T05:07:18.947Z,22.75
2018-09-24T05:07:51.038Z,22.74
2018-09-24T05:08:23.136Z,22.75
2018-09-24T05:08:55.289Z,22.74
2018-09-24T05:09:27.497Z,22.74
2018-09-24T05:09:59.616Z,22.74
2018-09-24T05:10:31.748Z,22.74
2018-09-24T05:11:03.877Z,22.73
2018-09-24T05:11:36.070Z,22.73
2018-09-24T05:12:08.263Z,22.73
2018-09-24T05:12:40.340Z,22.74
2018-09-24T05:13:12.577Z,22.74
2018-09-24T05:13:44.680Z,22.73
2018-09-24T05:14:16.842Z,22.73
2018-09-24T05:14:48.932Z,22.72
2018-09-24T05:15:21.049Z,22.73
2018-09-24T05:15:53.261Z,22.72
2018-09-24T05:16:25.465Z,22.73
2018-09-24T05:16:57.569Z,22.72
2018-09-24T05:17:29.702Z,22.72
2018-09-24T05:18:01.886Z,22.73
2018-09-24T05:18:34.026Z,22.72
2018-09-24T05:19:06.142Z,22.71
2018-09-24T05:19:38.291Z,22.71
2018-09-24T05:20:10.690Z,22.70
2018-09-24T05:20:42.769Z,22.71
2018-09-24T05:21:14.946Z,22.70
2018-09-24T05:21:47.097Z,22.69
2018-09-24T05:22:19.225Z,22.72
2018-09-24T05:22:51.388Z,22.71
2018-09-24T05:23:23.445Z,22.71
2018-09-24T05:23:55.546Z,22.70
2018-09-24T05:24:27.662Z,22.70
2018-09-24T05:24:59.826Z,22.69
2018-09-24T05:25:31.934Z,22.70
2018-09-24T05:26:04.117Z,22.71
2018-09-24T05:26:36.209Z,22.70
2018-09-24T05:27:08.579Z,22.69
2018-09-24T05:27:40.673Z,22.70
2018-09-24T05:28:12.790Z,22.70
2018-09-24T05:28:44.931Z,22.69
2018-09-24T05:29:17.064Z,22.70
2018-09-24T05:29:49.141Z,22.69
2018-09-24T05:30:21.242Z,22.70
2018-09-24T05:30:53.547Z,22.70
2018-09-24T05:31:25.795Z,22.69
2018-09-24T05:31:58.030Z,22.69
2018-09-24T05:32:30.348Z,22.69
2018-09-24T05:33:02.402Z,22.71
2018-09-24T05:33:34.546Z,22.70
2018-09-24T05:34:06.966Z,22.70
2018-09-24T05:34:39.098Z,22.69
2018-09-24T05:35:11.171Z,22.69
2018-09-24T05:35:43.482Z,22.69
2018-09-24T05:36:15.554Z,22.70
2018-09-24T05:36:47.677Z,22.70
2018-09-24T05:37:19.758Z,22.70
2018-09-24T05:37:51.885Z,22.70
2018-09-24T05:38:24.015Z,22.69
2018-09-24T05:38:56.114Z,22.69
2018-09-24T05:39:28.263Z,22.69
2018-09-24T05:40:00.399Z,22.69
2018-09-24T05:40:32.626Z,22.69
2018-09-24T05:41:04.762Z,22.69
2018-09-24T05:41:36.903Z,22.69
2018-09-24T05:42:08.999Z,22.69
2018-09-24T05:42:41.144Z,22.68
2018-09-24T05:43:13.229Z,22.68
2018-09-24T05:43:45.346Z,22.67
2018-09-24T05:44:17.528Z,22.67
2018-09-24T05:44:49.829Z,22.67
2018-09-24T05:45:21.974Z,22.66
2018-09-24T05:45:54.119Z,22.67
2018-09-24T05:46:26.206Z,22.67
2018-09-24T05:46:58.336Z,22.66
2018-09-24T05:47:30.544Z,22.68
2018-09-24T05:48:02.684Z,22.67
2018-09-24T05:48:34.899Z,22.66
2018-09-24T05:49:07.026Z,22.67
2018-09-24T05:49:39.414Z,22.67
2018-09-24T05:50:11.561Z,22.65
2018-09-24T05:50:43.714Z,22.67
2018-09-24T05:51:15.833Z,22.67
2018-09-24T05:51:47.964Z,22.66
2018-09-24T05:52:20.089Z,22.67
2018-09-24T05:52:52.170Z,22.67
2018-09-24T05:53:24.292Z,22.66
2018-09-24T05:53:56.394Z,22.66
2018-09-24T05:54:28.503Z,22.67
2018-09-24T05:55:00.683Z,22.67
2018-09-24T05:55:32.939Z,22.66
2018-09-24T05:56:05.027Z,22.67
2018-09-24T05:56:37.187Z,22.68
2018-09-24T05:57:09.404Z,22.68
2018-09-24T05:57:41.527Z,22.68
2018-09-24T05:58:13.604Z,22.68
2018-09-24T05:58:45.736Z,22.68
2018-09-24T05:59:17.872Z,22.68
2018-09-24T05:59:49.986Z,22.67
2018-09-24T06:00:22.097Z,22.67
2018-09-24T06:00:54.226Z,22.66
2018-09-24T06:01:26.632Z,22.66
2018-09-24T06:01:58.824Z,22.67
2018-09-24T06:02:31.040Z,22.67
2018-09-24T06:03:03.166Z,22.67
2018-09-24T06:03:35.282Z,22.67
2018-09-24T06:04:07.467Z,22.67
2018-09-24T06:04:39.634Z,22.67
2018-09-24T06:05:11.700Z,22.66
2018-09-24T06:05:43.777Z,22.65
2018-09-24T06:06:15.874Z,22.66
2018-09-24T06:06:48.019Z,22.66
2018-09-24T06:07:20.119Z,22.65
2018-09-24T06:07:52.235Z,22.65
2018-09-24T06:08:24.361Z,22.64
2018-09-24T06:08:56.530Z,22.66
2018-09-24T06:09:28.761Z,22.65
2018-09-24T06:10:00.910Z,22.65
2018-09-24T06:10:33.120Z,22.66
2018-09-24T06:11:05.286Z,22.65
2018-09-24T06:11:37.402Z,22.65
2018-09-24T06:12:09.510Z,22.66
2018-09-24T06:12:41.653Z,22.66
2018-09-24T06:13:13.825Z,22.67
2018-09-24T06:13:46.077Z,22.67
2018-09-24T06:14:18.143Z,22.66
2018-09-24T06:14:50.245Z,22.66
2018-09-24T06:15:22.319Z,22.67
2018-09-24T06:15:54.503Z,22.66
2018-09-24T06:16:26.672Z,22.67
2018-09-24T06:16:58.858Z,22.67
2018-09-24T06:17:31.149Z,22.67
2018-09-24T06:18:03.266Z,22.67
2018-09-24T06:18:35.346Z,22.67
2018-09-24T06:19:07.738Z,22.66
2018-09-24T06:19:39.762Z,22.67
2018-09-24T06:20:12.062Z,22.67
2018-09-24T06:20:44.194Z,22.67
2018-09-24T06:21:16.321Z,22.66
2018-09-24T06:21:48.418Z,22.66
2018-09-24T06:22:20.717Z,22.66
2018-09-24T06:22:52.822Z,22.65
2018-09-24T06:23:24.916Z,22.64
2018-09-24T06:23:57.098Z,22.64
2018-09-24T06:24:29.562Z,22.65
2018-09-24T06:25:01.684Z,22.66
2018-09-24T06:25:33.811Z,22.65
2018-09-24T06:26:05.955Z,22.65
2018-09-24T06:26:38.129Z,22.65
2018-09-24T06:27:10.230Z,22.65
2018-09-24T06:27:42.592Z,22.65
2018-09-24T06:28:14.752Z,22.66
2018-09-24T06:28:46.842Z,22.65
2018-09-24T06:29:18.998Z,22.66
2018-09-24T06:29:51.306Z,22.65
2018-09-24T06:30:23.437Z,22.64
2018-09-24T06:30:55.529Z,22.63
2018-09-24T06:31:27.676Z,22.64
2018-09-24T06:31:59.837Z,22.63
2018-09-24T06:32:31.929Z,22.64
2018-09-24T06:33:04.157Z,22.64
2018-09-24T06:33:36.248Z,22.66
2018-09-24T06:34:08.384Z,22.64
2018-09-24T06:34:40.676Z,22.63
2018-09-24T06:35:12.950Z,22.63
2018-09-24T06:35:45.069Z,22.63
2018-09-24T06:36:17.170Z,22.64
2018-09-24T06:36:49.258Z,22.63
2018-09-24T06:37:21.541Z,22.63
2018-09-24T06:37:53.706Z,22.61
2018-09-24T06:38:25.797Z,22.63
2018-09-24T06:38:58.006Z,22.63
2018-09-24T06:39:30.131Z,22.63
2018-09-24T06:40:02.264Z,22.65
2018-09-24T06:40:34.594Z,22.65
2018-09-24T06:41:06.789Z,22.65
2018-09-24T06:41:38.995Z,22.65
2018-09-24T06:42:11.128Z,22.65
2018-09-24T06:42:43.233Z,22.64
2018-09-24T06:43:15.321Z,22.64
2018-09-24T06:43:47.463Z,22.65
2018-09-24T06:44:19.557Z,22.65
2018-09-24T06:44:51.719Z,22.65
2018-09-24T06:45:23.824Z,22.63
2018-09-24T06:45:56.097Z,22.64
2018-09-24T06:46:28.231Z,22.64
2018-09-24T06:47:00.356Z,22.64
2018-09-24T06:47:32.697Z,22.62
2018-09-24T06:48:04.782Z,22.62
2018-09-24T06:48:36.911Z,22.63
2018-09-24T06:49:09.037Z,22.62
2018-09-24T06:49:41.353Z,22.62
2018-09-24T06:50:13.437Z,22.62
2018-09-24T06:50:45.864Z,22.61
2018-09-24T06:51:17.965Z,22.61
2018-09-24T06:51:50.199Z,22.61
2018-09-24T06:52:22.352Z,22.61
2018-09-24T06:52:54.441Z,22.61
2018-09-24T06:53:26.573Z,22.61
2018-09-24T06:53:58.718Z,22.62